createdAt,value
2023-01-07T00:01:58.872Z,9.65
2023-01-07T00:04:26.458Z,9.65
2023-01-07T00:06:54.372Z,9.70
2023-01-07T00:09:22.037Z,9.69
2023-01-07T00:11:49.643Z,9.77
2023-01-07T00:14:17.362Z,9.60
2023-01-07T00:16:44.976Z,9.66
2023-01-07T00:19:15.405Z,9.58
2023-01-07T00:21:43.368Z,9.47
2023-01-07T00:24:12.114Z,9.32
2023-01-07T00:26:40.579Z,9.23
2023-01-07T00:29:09.282Z,8.96
2023-01-07T00:31:39.992Z,9.20
2023-01-07T00:34:09.321Z,9.39
2023-01-07T00:36:42.736Z,9.47
2023-01-07T00:39:15.975Z,9.49
2023-01-07T00:42:03.103Z,9.44
2023-01-07T00:44:31.500Z,9.22
2023-01-07T00:46:59.996Z,9.14
2023-01-07T00:49:28.375Z,9.52
2023-01-07T00:51:55.989Z,9.49
2023-01-07T00:54:23.911Z,9.50
2023-01-07T00:56:51.648Z,9.45
2023-01-07T00:59:19.297Z,9.39
2023-01-07T01:01:47.085Z,9.52
2023-01-07T01:04:15.079Z,9.51
2023-01-07T01:06:42.704Z,9.42
2023-01-07T01:09:10.358Z,9.65
2023-01-07T01:11:37.965Z,9.80
2023-01-07T01:14:05.615Z,9.82
2023-01-07T01:16:33.210Z,9.86
2023-01-07T01:19:00.816Z,9.86
2023-01-07T01:21:28.609Z,9.84
2023-01-07T01:23:56.198Z,9.84
2023-01-07T01:26:23.888Z,9.75
2023-01-07T01:28:51.531Z,9.66
2023-01-07T01:31:23.485Z,9.58
2023-01-07T01:33:55.163Z,9.45
2023-01-07T01:36:23.996Z,9.35
2023-01-07T01:38:53.492Z,9.03
2023-01-07T01:41:22.004Z,9.24
2023-01-07T01:43:52.419Z,9.26
2023-01-07T01:46:33.993Z,9.19
2023-01-07T01:49:22.627Z,9.09
2023-01-07T01:52:22.350Z,9.02
2023-01-07T01:54:57.951Z,9.09
2023-01-07T01:57:29.056Z,9.04
2023-01-07T01:59:59.179Z,9.06
2023-01-07T02:02:35.089Z,9.16
2023-01-07T02:05:03.673Z,9.17
2023-01-07T02:07:31.320Z,9.23
2023-01-07T02:10:11.409Z,9.23
2023-01-07T02:13:07.605Z,9.20
2023-01-07T02:16:05.202Z,9.14
2023-01-07T02:18:51.538Z,9.21
2023-01-07T02:22:23.235Z,9.26
2023-01-07T02:25:22.920Z,9.25
2023-01-07T02:28:08.749Z,9.37
2023-01-07T02:31:36.583Z,9.43
2023-01-07T02:34:12.216Z,9.50
2023-01-07T02:36:49.921Z,9.50
2023-01-07T02:39:36.441Z,9.62
2023-01-07T02:42:13.108Z,9.60
2023-01-07T02:45:08.786Z,9.53
2023-01-07T02:47:43.323Z,9.23
2023-01-07T02:50:11.272Z,9.11
2023-01-07T02:52:38.916Z,8.65
2023-01-07T02:55:27.396Z,8.90
2023-01-07T02:58:27.907Z,9.03
2023-01-07T03:01:17.456Z,9.13
2023-01-07T03:04:03.341Z,9.15
2023-01-07T03:06:54.381Z,9.17
2023-01-07T03:09:51.157Z,9.29
2023-01-07T03:12:37.161Z,8.79
2023-01-07T03:15:20.473Z,9.06
2023-01-07T03:18:08.559Z,8.94
2023-01-07T03:20:39.116Z,8.71
2023-01-07T03:23:10.211Z,8.69
2023-01-07T03:25:46.528Z,9.13
2023-01-07T03:28:20.715Z,8.99
2023-01-07T03:30:50.647Z,8.92
2023-01-07T03:33:36.094Z,8.75
2023-01-07T03:36:06.660Z,8.87
2023-01-07T03:38:37.747Z,8.93
2023-01-07T03:41:05.606Z,8.93
2023-01-07T03:43:33.353Z,9.03
2023-01-07T03:46:01.015Z,9.10
2023-01-07T03:48:29.398Z,9.48
2023-01-07T03:50:57.118Z,9.33
2023-01-07T03:53:24.823Z,9.22
2023-01-07T03:55:52.883Z,9.08
2023-01-07T03:58:20.484Z,9.29
2023-01-07T04:00:48.154Z,9.43
2023-01-07T04:03:19.521Z,9.21
2023-01-07T04:05:48.298Z,9.66
2023-01-07T04:08:15.947Z,9.63
2023-01-07T04:10:43.606Z,9.75
2023-01-07T04:13:13.272Z,9.90
2023-01-07T04:15:44.628Z,9.86
2023-01-07T04:18:12.679Z,9.80
2023-01-07T04:20:40.341Z,9.69
2023-01-07T04:23:08.037Z,9.76
2023-01-07T04:25:36.213Z,9.57
2023-01-07T04:28:06.301Z,9.13
2023-01-07T04:30:34.512Z,9.17
2023-01-07T04:33:02.231Z,9.32
2023-01-07T04:35:29.872Z,9.39
2023-01-07T04:37:57.968Z,9.58
2023-01-07T04:40:26.449Z,9.58
2023-01-07T04:42:54.124Z,9.60
2023-01-07T04:45:21.845Z,9.52
2023-01-07T04:47:49.902Z,9.24
2023-01-07T04:50:18.147Z,9.52
2023-01-07T04:52:47.071Z,9.76
2023-01-07T04:55:15.026Z,8.54
2023-01-07T04:57:43.773Z,9.21
2023-01-07T05:00:13.690Z,8.86
2023-01-07T05:02:42.367Z,9.63
2023-01-07T05:05:11.971Z,9.60
2023-01-07T05:07:40.620Z,9.36
2023-01-07T05:10:10.240Z,8.83
2023-01-07T05:12:37.995Z,9.16
2023-01-07T05:15:09.007Z,9.71
2023-01-07T05:17:39.349Z,9.73
2023-01-07T05:20:08.212Z,9.39
2023-01-07T05:22:37.689Z,9.57
2023-01-07T05:25:06.314Z,9.28
2023-01-07T05:27:33.952Z,9.00
2023-01-07T05:30:04.324Z,9.78
2023-01-07T05:32:31.963Z,9.60
2023-01-07T05:34:59.560Z,10.33
2023-01-07T05:37:27.990Z,10.40
2023-01-07T05:39:56.368Z,10.43
2023-01-07T05:42:24.853Z,10.57
2023-01-07T05:44:52.559Z,10.28
2023-01-07T05:47:20.532Z,10.14
2023-01-07T05:49:48.084Z,9.85
2023-01-07T05:52:15.747Z,10.07
2023-01-07T05:54:43.359Z,9.96
2023-01-07T05:57:11.307Z,10.30
2023-01-07T05:59:38.957Z,9.85
2023-01-07T06:02:06.655Z,9.82
2023-01-07T06:04:34.365Z,9.65
2023-01-07T06:07:02.109Z,10.01
2023-01-07T06:09:29.950Z,9.47
2023-01-07T06:11:57.598Z,9.44
2023-01-07T06:14:25.257Z,9.65
2023-01-07T06:16:52.885Z,9.68
2023-01-07T06:19:22.321Z,9.90
2023-01-07T06:21:50.128Z,9.46
2023-01-07T06:24:17.742Z,9.36
2023-01-07T06:26:45.337Z,9.83
2023-01-07T06:29:13.002Z,10.16
2023-01-07T06:31:40.690Z,10.24
2023-01-07T06:34:08.506Z,10.41
2023-01-07T06:36:36.173Z,10.05
2023-01-07T06:39:03.760Z,10.09
2023-01-07T06:41:31.540Z,10.05
2023-01-07T06:43:59.138Z,9.99
2023-01-07T06:46:26.961Z,10.04
2023-01-07T06:48:54.552Z,9.94
2023-01-07T06:51:22.164Z,9.94
2023-01-07T06:53:49.745Z,9.97
2023-01-07T06:56:17.364Z,9.76
2023-01-07T06:58:44.930Z,9.39
2023-01-07T07:01:12.828Z,9.84
2023-01-07T07:03:40.516Z,9.81
2023-01-07T07:06:08.259Z,10.20
2023-01-07T07:08:35.841Z,9.47
2023-01-07T07:11:03.463Z,9.90
2023-01-07T07:13:31.109Z,10.08
2023-01-07T07:15:58.772Z,10.03
2023-01-07T07:18:26.985Z,9.88
2023-01-07T07:20:54.731Z,10.19
2023-01-07T07:23:22.291Z,9.95
2023-01-07T07:25:49.895Z,9.90
2023-01-07T07:28:17.488Z,9.87
2023-01-07T07:30:46.115Z,9.55
2023-01-07T07:33:18.858Z,9.68
2023-01-07T07:35:47.608Z,9.69
2023-01-07T07:38:17.612Z,10.01
2023-01-07T07:40:46.646Z,10.07
2023-01-07T07:43:15.621Z,9.81
2023-01-07T07:45:44.186Z,9.63
2023-01-07T07:48:16.265Z,9.95
2023-01-07T07:50:43.960Z,10.17
2023-01-07T07:53:11.682Z,9.90
2023-01-07T07:55:40.554Z,10.16
2023-01-07T07:58:08.169Z,9.55
2023-01-07T08:00:35.936Z,10.20
2023-01-07T08:03:04.580Z,10.32
2023-01-07T08:05:32.374Z,10.42
2023-01-07T08:08:00.283Z,10.56
2023-01-07T08:10:28.880Z,10.41
2023-01-07T08:12:56.463Z,10.44
2023-01-07T08:15:24.222Z,10.61
2023-01-07T08:18:04.195Z,10.50
2023-01-07T08:20:32.445Z,10.61
2023-01-07T08:23:02.322Z,10.35
2023-01-07T08:25:31.778Z,10.52
2023-01-07T08:28:00.504Z,10.98
2023-01-07T08:30:29.310Z,10.98
2023-01-07T08:32:57.340Z,10.93
2023-01-07T08:35:25.247Z,11.08
2023-01-07T08:37:54.107Z,11.34
2023-01-07T08:40:21.687Z,11.27
2023-01-07T08:42:49.304Z,11.59
2023-01-07T08:45:17.631Z,11.74
2023-01-07T08:47:48.560Z,11.36
2023-01-07T08:50:16.232Z,11.47
2023-01-07T08:52:47.205Z,11.53
2023-01-07T08:55:14.953Z,11.69
2023-01-07T08:57:42.745Z,11.91
2023-01-07T09:00:11.404Z,11.94
2023-01-07T09:02:39.199Z,11.69
2023-01-07T09:05:07.614Z,12.12
2023-01-07T09:07:35.180Z,12.41
2023-01-07T09:10:03.437Z,12.65
2023-01-07T09:12:31.441Z,12.52
2023-01-07T09:14:59.106Z,12.48
2023-01-07T09:17:26.815Z,12.83
2023-01-07T09:19:54.447Z,12.93
2023-01-07T09:22:22.489Z,12.72
2023-01-07T09:24:50.102Z,13.22
2023-01-07T09:27:17.710Z,13.52
2023-01-07T09:29:45.374Z,13.27
2023-01-07T09:32:13.068Z,13.46
2023-01-07T09:34:40.743Z,13.68
2023-01-07T09:37:08.435Z,12.74
2023-01-07T09:39:36.148Z,12.70
2023-01-07T09:42:09.708Z,12.44
2023-01-07T09:44:52.533Z,13.20
2023-01-07T09:47:24.784Z,13.50
2023-01-07T09:49:59.779Z,12.90
2023-01-07T09:52:37.153Z,12.43
2023-01-07T09:55:28.449Z,12.32
2023-01-07T09:57:56.098Z,12.07
2023-01-07T10:00:24.864Z,12.31
2023-01-07T10:03:52.276Z,12.51
2023-01-07T10:06:43.117Z,12.15
2023-01-07T10:09:17.671Z,12.76
2023-01-07T10:12:30.499Z,12.08
2023-01-07T10:15:09.841Z,12.55
2023-01-07T10:17:59.203Z,12.69
2023-01-07T10:20:38.609Z,12.73
2023-01-07T10:23:31.930Z,11.90
2023-01-07T10:26:02.338Z,12.23
2023-01-07T10:28:44.377Z,12.32
2023-01-07T10:31:23.505Z,12.74
2023-01-07T10:33:52.594Z,12.18
2023-01-07T10:36:53.385Z,11.79
2023-01-07T10:40:11.935Z,12.80
2023-01-07T10:42:59.403Z,12.83
2023-01-07T10:45:57.622Z,12.77
2023-01-07T10:48:47.068Z,12.67
2023-01-07T10:52:07.686Z,12.81
2023-01-07T10:55:02.710Z,12.89
2023-01-07T10:57:31.806Z,12.81
2023-01-07T11:00:07.892Z,12.51
2023-01-07T11:02:37.613Z,12.76
2023-01-07T11:05:05.902Z,12.10
2023-01-07T11:07:46.805Z,11.86
2023-01-07T11:10:19.108Z,12.24
2023-01-07T11:12:50.313Z,12.25
2023-01-07T11:15:43.265Z,11.32
2023-01-07T11:18:21.837Z,11.03
2023-01-07T11:20:58.409Z,11.42
2023-01-07T11:23:44.306Z,11.35
2023-01-07T11:26:26.625Z,11.39
2023-01-07T11:29:23.767Z,12.52
2023-01-07T11:32:00.605Z,11.25
2023-01-07T11:34:35.831Z,11.67
2023-01-07T11:37:05.536Z,11.08
2023-01-07T11:39:35.973Z,11.66
2023-01-07T11:42:35.579Z,11.81
2023-01-07T11:45:27.312Z,11.81
2023-01-07T11:48:16.720Z,12.12
2023-01-07T11:51:08.949Z,12.07
2023-01-07T11:53:45.575Z,12.25
2023-01-07T11:56:20.924Z,12.05
2023-01-07T11:59:13.322Z,12.72
2023-01-07T12:01:47.453Z,12.84
2023-01-07T12:04:29.009Z,12.04
2023-01-07T12:07:07.946Z,12.40
2023-01-07T12:09:41.270Z,12.81
2023-01-07T12:12:39.393Z,12.45
2023-01-07T12:15:21.049Z,13.03
2023-01-07T12:17:59.654Z,13.04
2023-01-07T12:20:33.264Z,13.47
2023-01-07T12:23:44.902Z,12.91
2023-01-07T12:26:15.135Z,13.41
2023-01-07T12:29:12.101Z,13.17
2023-01-07T12:32:13.734Z,12.83
2023-01-07T12:35:15.010Z,11.64
2023-01-07T12:37:52.836Z,12.00
2023-01-07T12:41:00.362Z,12.73
2023-01-07T12:43:34.869Z,12.27
2023-01-07T12:46:13.570Z,12.30
2023-01-07T12:49:02.446Z,11.99
2023-01-07T12:51:57.853Z,11.84
2023-01-07T12:54:56.110Z,12.43
2023-01-07T12:57:30.519Z,12.57
2023-01-07T13:00:24.547Z,12.92
2023-01-07T13:03:28.776Z,12.13
2023-01-07T13:06:20.022Z,12.12
2023-01-07T13:08:59.620Z,10.67
2023-01-07T13:12:46.109Z,12.03
2023-01-07T13:15:29.736Z,12.48
2023-01-07T13:18:07.823Z,12.86
2023-01-07T13:21:07.949Z,13.29
2023-01-07T13:24:22.400Z,12.89
2023-01-07T13:27:32.187Z,12.45
2023-01-07T13:30:14.194Z,12.82
2023-01-07T13:33:04.733Z,12.84
2023-01-07T13:35:53.128Z,12.53
2023-01-07T13:38:39.531Z,13.04
2023-01-07T13:41:46.806Z,12.57
2023-01-07T13:44:43.207Z,12.93
2023-01-07T13:47:17.446Z,12.75
2023-01-07T13:49:56.707Z,12.84
2023-01-07T13:52:30.876Z,13.28
2023-01-07T13:55:26.903Z,13.11
2023-01-07T13:57:54.491Z,12.86
2023-01-07T14:01:00.154Z,12.69
2023-01-07T14:03:27.642Z,11.86
2023-01-07T14:06:27.637Z,12.06
2023-01-07T14:09:07.288Z,12.48
2023-01-07T14:11:41.819Z,12.23
2023-01-07T14:14:20.469Z,12.53
2023-01-07T14:17:19.093Z,12.43
2023-01-07T14:20:11.070Z,12.22
2023-01-07T14:23:00.175Z,11.94
2023-01-07T14:25:53.102Z,11.64
2023-01-07T14:29:08.107Z,12.11
2023-01-07T14:31:36.672Z,11.80
2023-01-07T14:34:23.062Z,12.43
2023-01-07T14:37:06.264Z,12.26
2023-01-07T14:39:38.741Z,12.65
2023-01-07T14:42:42.144Z,12.41
2023-01-07T14:45:40.948Z,12.67
2023-01-07T14:48:08.474Z,12.23
2023-01-07T14:50:58.460Z,12.00
2023-01-07T14:54:23.183Z,12.15
2023-01-07T14:57:05.831Z,12.26
2023-01-07T14:59:57.131Z,12.34
2023-01-07T15:03:08.303Z,12.08
2023-01-07T15:06:06.683Z,12.13
2023-01-07T15:09:09.475Z,12.07
2023-01-07T15:11:59.578Z,11.86
2023-01-07T15:15:11.961Z,12.24
2023-01-07T15:17:40.516Z,12.04
2023-01-07T15:20:10.246Z,12.33
2023-01-07T15:23:08.515Z,12.19
2023-01-07T15:26:04.787Z,12.20
2023-01-07T15:29:08.765Z,11.98
2023-01-07T15:32:08.847Z,12.18
2023-01-07T15:34:39.446Z,12.03
2023-01-07T15:37:08.664Z,12.42
2023-01-07T15:39:41.292Z,12.43
2023-01-07T15:42:21.212Z,12.46
2023-01-07T15:44:53.577Z,12.25
2023-01-07T15:47:37.807Z,12.26
2023-01-07T15:50:36.586Z,11.68
2023-01-07T15:53:29.343Z,11.99
2023-01-07T15:56:03.926Z,11.42
2023-01-07T15:58:41.460Z,11.59
2023-01-07T16:01:22.383Z,11.76
2023-01-07T16:03:54.768Z,11.99
2023-01-07T16:06:31.573Z,11.02
2023-01-07T16:09:04.448Z,11.56
2023-01-07T16:11:32.254Z,11.19
2023-01-07T16:14:03.024Z,10.94
2023-01-07T16:16:32.624Z,10.44
2023-01-07T16:19:03.702Z,10.92
2023-01-07T16:21:40.268Z,10.13
2023-01-07T16:24:07.979Z,10.01
2023-01-07T16:26:41.129Z,9.88
2023-01-07T16:29:24.078Z,9.95
2023-01-07T16:31:53.176Z,9.42
2023-01-07T16:34:23.807Z,9.44
2023-01-07T16:36:58.254Z,9.30
2023-01-07T16:39:32.451Z,9.50
2023-01-07T16:42:19.481Z,9.95
2023-01-07T16:44:49.491Z,9.94
2023-01-07T16:47:31.450Z,9.94
2023-01-07T16:50:19.044Z,9.95
2023-01-07T16:52:56.003Z,9.24
2023-01-07T16:55:49.882Z,9.67
2023-01-07T16:58:53.077Z,9.37
2023-01-07T17:01:34.020Z,9.40
2023-01-07T17:04:09.527Z,9.29
2023-01-07T17:06:42.193Z,9.14
2023-01-07T17:09:35.609Z,9.76
2023-01-07T17:12:04.163Z,10.02
2023-01-07T17:14:34.448Z,9.95
2023-01-07T17:17:17.575Z,9.86
2023-01-07T17:20:29.798Z,9.90
2023-01-07T17:22:57.544Z,9.65
2023-01-07T17:25:30.854Z,10.08
2023-01-07T17:28:06.567Z,10.18
2023-01-07T17:30:36.480Z,10.62
2023-01-07T17:33:04.676Z,10.75
2023-01-07T17:35:32.371Z,10.78
2023-01-07T17:38:00.002Z,10.15
2023-01-07T17:40:27.672Z,10.07
2023-01-07T17:43:14.532Z,10.36
2023-01-07T17:45:42.170Z,10.32
2023-01-07T17:48:14.505Z,10.33
2023-01-07T17:50:43.706Z,10.14
2023-01-07T17:53:23.153Z,10.35
2023-01-07T17:55:50.898Z,10.19
2023-01-07T17:58:34.671Z,10.37
2023-01-07T18:01:07.220Z,10.74
2023-01-07T18:03:35.291Z,10.53
2023-01-07T18:06:03.460Z,11.20
2023-01-07T18:08:31.028Z,10.87
2023-01-07T18:11:17.396Z,11.08
2023-01-07T18:13:44.994Z,10.90
2023-01-07T18:16:14.287Z,10.17
2023-01-07T18:18:41.996Z,10.50
2023-01-07T18:21:11.602Z,10.43
2023-01-07T18:23:39.233Z,10.34
2023-01-07T18:26:06.998Z,10.38
2023-01-07T18:28:34.593Z,10.40
2023-01-07T18:31:02.238Z,9.88
2023-01-07T18:33:29.857Z,9.98
2023-01-07T18:35:57.433Z,9.89
2023-01-07T18:38:25.052Z,8.85
2023-01-07T18:40:54.983Z,9.15
2023-01-07T18:43:22.891Z,9.56
2023-01-07T18:45:50.445Z,9.46
2023-01-07T18:48:18.786Z,9.02
2023-01-07T18:50:49.477Z,9.12
2023-01-07T18:53:18.859Z,9.96
2023-01-07T18:55:46.645Z,9.60
2023-01-07T18:58:16.299Z,9.31
2023-01-07T19:00:44.225Z,8.46
2023-01-07T19:03:12.812Z,8.67
2023-01-07T19:05:41.052Z,8.49
2023-01-07T19:08:08.695Z,8.58
2023-01-07T19:10:40.732Z,8.73
2023-01-07T19:13:08.387Z,8.86
2023-01-07T19:15:35.992Z,8.79
2023-01-07T19:18:03.780Z,9.02
2023-01-07T19:20:31.359Z,9.02
2023-01-07T19:23:01.027Z,8.87
2023-01-07T19:25:30.645Z,8.81
2023-01-07T19:27:58.802Z,9.17
2023-01-07T19:30:26.563Z,8.86
2023-01-07T19:32:54.419Z,8.84
2023-01-07T19:35:22.003Z,8.57
2023-01-07T19:37:50.171Z,8.59
2023-01-07T19:40:17.918Z,9.36
2023-01-07T19:42:45.587Z,9.21
2023-01-07T19:45:13.209Z,8.91
2023-01-07T19:47:41.783Z,8.85
2023-01-07T19:50:09.908Z,9.28
2023-01-07T19:52:37.475Z,9.34
2023-01-07T19:55:05.854Z,9.55
2023-01-07T19:57:34.166Z,9.65
2023-01-07T20:00:01.905Z,8.98
2023-01-07T20:02:33.025Z,9.24
2023-01-07T20:05:00.711Z,9.54
2023-01-07T20:07:33.842Z,9.58
2023-01-07T20:10:01.914Z,9.72
2023-01-07T20:12:29.499Z,9.72
2023-01-07T20:14:57.121Z,9.04
2023-01-07T20:17:25.091Z,9.14
2023-01-07T20:19:52.724Z,8.98
2023-01-07T20:22:20.297Z,8.83
2023-01-07T20:24:47.925Z,8.60
2023-01-07T20:27:15.508Z,9.30
2023-01-07T20:29:43.150Z,9.53
2023-01-07T20:32:10.732Z,8.91
2023-01-07T20:34:38.316Z,8.68
2023-01-07T20:37:05.885Z,8.89
2023-01-07T20:39:33.442Z,8.91
2023-01-07T20:42:01.019Z,8.96
2023-01-07T20:44:29.459Z,8.89
2023-01-07T20:46:56.993Z,9.03
2023-01-07T20:49:24.581Z,9.11
2023-01-07T20:51:52.181Z,9.02
2023-01-07T20:54:19.803Z,9.34
2023-01-07T20:56:47.480Z,9.35
2023-01-07T20:59:17.128Z,9.51
2023-01-07T21:01:44.912Z,9.61
2023-01-07T21:04:13.004Z,9.48
2023-01-07T21:06:41.142Z,9.37
2023-01-07T21:09:09.036Z,8.75
2023-01-07T21:11:36.756Z,8.95
2023-01-07T21:14:04.326Z,8.86
2023-01-07T21:16:32.482Z,9.02
2023-01-07T21:19:00.563Z,9.15
2023-01-07T21:21:28.287Z,8.66
2023-01-07T21:23:55.961Z,8.35
2023-01-07T21:26:24.912Z,8.62
2023-01-07T21:28:55.999Z,8.50
2023-01-07T21:31:25.949Z,8.88
2023-01-07T21:33:56.445Z,8.92
2023-01-07T21:36:26.342Z,9.05
2023-01-07T21:38:57.687Z,8.86
2023-01-07T21:41:26.082Z,8.62
2023-01-07T21:43:54.894Z,8.34
2023-01-07T21:46:22.796Z,8.86
2023-01-07T21:48:51.794Z,8.30
2023-01-07T21:51:26.931Z,7.83
2023-01-07T21:53:57.082Z,8.14
2023-01-07T21:56:32.271Z,8.25
2023-01-07T21:59:00.437Z,7.86
2023-01-07T22:01:29.178Z,8.55
2023-01-07T22:03:59.327Z,8.01
2023-01-07T22:06:33.632Z,7.95
2023-01-07T22:09:07.579Z,7.62
2023-01-07T22:11:38.534Z,7.47
2023-01-07T22:14:06.292Z,7.76
2023-01-07T22:16:34.219Z,7.68
2023-01-07T22:19:01.866Z,8.10
2023-01-07T22:21:30.035Z,7.84
2023-01-07T22:23:57.881Z,7.69
2023-01-07T22:26:25.632Z,7.73
2023-01-07T22:28:56.306Z,7.83
2023-01-07T22:31:26.558Z,7.99
2023-01-07T22:33:54.843Z,8.01
2023-01-07T22:36:34.549Z,8.56
2023-01-07T22:39:09.700Z,8.08
2023-01-07T22:41:37.617Z,8.02
2023-01-07T22:44:19.373Z,7.55
2023-01-07T22:46:49.373Z,7.68
2023-01-07T22:49:18.276Z,8.10
2023-01-07T22:51:49.077Z,8.51
2023-01-07T22:54:17.474Z,8.44
2023-01-07T22:56:45.777Z,8.63
2023-01-07T22:59:13.400Z,8.60
2023-01-07T23:01:41.017Z,8.37
2023-01-07T23:04:09.258Z,8.33
2023-01-07T23:06:37.908Z,8.24
2023-01-07T23:09:05.824Z,8.38
2023-01-07T23:11:48.640Z,7.98
2023-01-07T23:14:19.771Z,8.07
2023-01-07T23:16:48.026Z,8.68
2023-01-07T23:19:16.856Z,8.99
2023-01-07T23:21:46.792Z,8.49
2023-01-07T23:24:15.008Z,8.95
2023-01-07T23:26:43.520Z,8.42
2023-01-07T23:29:11.163Z,8.97
2023-01-07T23:31:39.065Z,9.12
2023-01-07T23:34:07.345Z,9.10
2023-01-07T23:36:38.847Z,9.15
2023-01-07T23:39:06.967Z,9.13
2023-01-07T23:41:34.674Z,9.30
2023-01-07T23:44:02.406Z,8.95
2023-01-07T23:46:30.172Z,9.29
2023-01-07T23:48:57.741Z,9.24
2023-01-07T23:51:25.487Z,9.50
2023-01-07T23:53:53.590Z,9.50
2023-01-07T23:56:21.938Z,9.11
2023-01-07T23:58:50.211Z,9.16
